Time;durP1;ratioP1;P1;durP2;ratioP2;P2;SDS_P1;SDS_P2;PMS_P1;PMS_P2;Temp;Humidity;BMP_temperature;BMP_pressure;BME280_temperature;BME280_humidity;BME280_pressure;Samples;Min_cycle;Max_cycle;Signal;HPM_P1;HPM_P2
2022/11/12 00:01:19;;;;;;;12.38;8.85;;;7.20;99.90;;;;;;5050661;28;20513;-64
2022/11/12 00:03:45;;;;;;;15.13;8.60;;;7.30;99.90;;;;;;5050491;28;20041;-64
2022/11/12 00:06:10;;;;;;;11.60;7.60;;;7.30;99.90;;;;;;5050771;28;20043;-64
2022/11/12 00:08:36;;;;;;;10.85;7.68;;;7.20;99.90;;;;;;5051924;28;20137;-64
2022/11/12 00:11:03;;;;;;;13.23;7.97;;;7.10;99.90;;;;;;5054801;28;20045;-64
2022/11/12 00:13:29;;;;;;;10.15;7.35;;;7.20;99.90;;;;;;5054572;28;20051;-64
2022/11/12 00:15:55;;;;;;;13.15;7.70;;;7.10;99.90;;;;;;5053154;28;20049;-64
2022/11/12 00:18:20;;;;;;;13.80;8.57;;;7.10;99.90;;;;;;5054740;28;20037;-64
2022/11/12 00:20:46;;;;;;;11.52;8.10;;;7.10;99.90;;;;;;5054275;28;20123;-64
2022/11/12 00:23:12;;;;;;;12.15;6.80;;;7.00;99.90;;;;;;5054509;28;20083;-64
2022/11/12 00:25:37;;;;;;;17.88;7.70;;;7.00;99.90;;;;;;5054117;28;20037;-64
2022/11/12 00:28:05;;;;;;;15.75;8.45;;;7.00;99.90;;;;;;5054288;28;20045;-64
2022/11/12 00:30:30;;;;;;;10.02;6.97;;;7.00;99.90;;;;;;5054358;28;20037;-64
2022/11/12 00:32:56;;;;;;;12.75;7.30;;;7.00;99.90;;;;;;5054273;28;20044;-64
2022/11/12 00:35:22;;;;;;;12.60;7.45;;;7.00;99.90;;;;;;5054253;28;20041;-64
2022/11/12 00:37:52;;;;;;;11.73;7.70;;;6.90;99.90;;;;;;5054098;28;20033;-64
2022/11/12 00:40:18;;;;;;;11.15;6.97;;;6.90;99.90;;;;;;5054442;28;20032;-64
2022/11/12 00:42:44;;;;;;;14.82;7.57;;;7.00;99.90;;;;;;5054189;28;20041;-64
2022/11/12 00:45:09;;;;;;;10.48;7.43;;;6.90;99.90;;;;;;5054062;28;20424;-64
2022/11/12 00:47:35;;;;;;;11.35;7.35;;;6.90;99.90;;;;;;5050114;28;20033;-64
2022/11/12 00:50:00;;;;;;;10.55;7.38;;;6.90;99.90;;;;;;5053501;28;20033;-64
2022/11/12 00:52:26;;;;;;;13.32;7.55;;;6.90;99.90;;;;;;5053886;28;20114;-64
2022/11/12 00:54:51;;;;;;;13.00;8.18;;;6.90;99.90;;;;;;5052310;28;20099;-64
2022/11/12 00:57:17;;;;;;;15.02;8.32;;;6.90;99.90;;;;;;5053971;28;20041;-64
2022/11/12 00:59:42;;;;;;;13.02;7.68;;;6.90;99.90;;;;;;5053596;28;20045;-64
2022/11/12 01:02:08;;;;;;;13.73;7.93;;;6.80;99.90;;;;;;5053010;28;20051;-64
2022/11/12 01:04:33;;;;;;;14.93;8.50;;;6.80;99.90;;;;;;5053578;28;20033;-64
2022/11/12 01:06:59;;;;;;;16.30;8.32;;;6.80;99.90;;;;;;5052392;28;20473;-64
2022/11/12 01:09:25;;;;;;;16.20;7.88;;;6.80;99.90;;;;;;5052324;28;20505;-64
2022/11/12 01:11:50;;;;;;;9.45;6.68;;;6.80;99.90;;;;;;5053633;28;20037;-64
2022/11/12 01:14:16;;;;;;;12.43;7.10;;;6.80;99.90;;;;;;5053262;28;20136;-64
2022/11/12 01:16:42;;;;;;;13.88;7.43;;;6.80;99.90;;;;;;5053685;28;20052;-64
2022/11/12 01:19:10;;;;;;;13.48;7.47;;;6.80;99.90;;;;;;5052914;28;20045;-64
2022/11/12 01:21:40;;;;;;;9.27;6.95;;;6.90;99.90;;;;;;5053595;28;20052;-64
2022/11/12 01:24:06;;;;;;;12.07;7.13;;;6.90;99.90;;;;;;5053015;28;20043;-64
2022/11/12 01:26:32;;;;;;;8.48;6.63;;;6.90;99.90;;;;;;5053298;28;20045;-64
2022/11/12 01:28:58;;;;;;;14.95;8.07;;;6.90;99.90;;;;;;5053166;28;20044;-64
2022/11/12 01:31:25;;;;;;;13.95;7.03;;;6.90;99.90;;;;;;5053331;28;20041;-64
2022/11/12 01:33:57;;;;;;;12.85;6.47;;;6.90;99.90;;;;;;5052901;28;20497;-64
2022/11/12 01:36:23;;;;;;;13.85;7.00;;;6.90;99.90;;;;;;5053342;28;20099;-64
2022/11/12 01:38:51;;;;;;;11.98;7.30;;;6.90;99.90;;;;;;5052760;28;20131;-64
2022/11/12 01:41:23;;;;;;;18.05;7.03;;;6.80;99.90;;;;;;5052838;28;20043;-64
2022/11/12 01:44:05;;;;;;;11.48;7.18;;;6.80;99.90;;;;;;5052980;28;20523;-64
2022/11/12 01:46:33;;;;;;;11.07;6.55;;;6.80;99.90;;;;;;5053028;28;20124;-64
2022/11/12 01:49:03;;;;;;;14.65;6.85;;;6.80;99.90;;;;;;5052840;28;20037;-64
2022/11/12 01:51:35;;;;;;;11.95;6.22;;;6.80;99.90;;;;;;5052528;28;20123;-64
2022/11/12 01:54:05;;;;;;;8.38;6.30;;;6.80;99.90;;;;;;5052601;28;20080;-64
2022/11/12 01:56:31;;;;;;;14.25;6.40;;;6.70;99.90;;;;;;5053045;28;20049;-64
2022/11/12 01:59:04;;;;;;;13.13;6.65;;;6.60;99.90;;;;;;5052495;28;20048;-64
2022/11/12 02:01:29;;;;;;;13.05;7.32;;;6.70;99.90;;;;;;5052625;28;20041;-64
2022/11/12 02:03:55;;;;;;;12.13;6.45;;;6.70;99.90;;;;;;5052320;28;20178;-64
2022/11/12 02:06:22;;;;;;;10.38;6.85;;;6.60;99.90;;;;;;5052638;28;20048;-64
2022/11/12 02:08:49;;;;;;;9.98;6.78;;;6.60;99.90;;;;;;5051261;28;20060;-64
2022/11/12 02:11:16;;;;;;;10.57;6.10;;;6.60;99.90;;;;;;5052519;28;20040;-64
2022/11/12 02:13:56;;;;;;;8.32;5.82;;;6.60;99.90;;;;;;5052438;28;20045;-64
2022/11/12 02:16:24;;;;;;;9.57;5.78;;;6.50;99.90;;;;;;5052169;28;20572;-64
2022/11/12 02:18:49;;;;;;;10.60;5.50;;;6.50;99.90;;;;;;5052260;28;20129;-64
2022/11/12 02:21:19;;;;;;;12.40;5.95;;;6.40;99.90;;;;;;5052397;28;20492;-64
2022/11/12 02:23:45;;;;;;;8.02;5.97;;;6.30;99.90;;;;;;5052283;28;20464;-64
2022/11/12 02:26:10;;;;;;;10.88;5.35;;;6.40;99.90;;;;;;5052009;28;20072;-64
2022/11/12 02:28:35;;;;;;;7.65;5.15;;;6.30;99.90;;;;;;5051050;28;20076;-64
2022/11/12 02:31:01;;;;;;;11.73;6.10;;;6.30;99.90;;;;;;5051005;28;20140;-64
2022/11/12 02:33:27;;;;;;;10.93;5.85;;;6.40;99.90;;;;;;5050686;28;20174;-64
2022/11/12 02:35:52;;;;;;;8.93;5.88;;;6.40;99.90;;;;;;5051817;28;20041;-64
2022/11/12 02:38:18;;;;;;;9.82;6.18;;;6.40;99.90;;;;;;5052164;28;20493;-64
2022/11/12 02:40:43;;;;;;;7.43;5.32;;;6.20;99.90;;;;;;5051800;28;20033;-64
2022/11/12 02:43:09;;;;;;;5.40;4.30;;;6.30;99.90;;;;;;5051987;28;20033;-64
2022/11/12 02:45:34;;;;;;;6.13;4.82;;;6.10;99.90;;;;;;5051632;28;20037;-64
2022/11/12 02:48:00;;;;;;;7.72;4.45;;;6.20;99.90;;;;;;5034080;28;20052;-64
2022/11/12 02:50:25;;;;;;;6.97;4.28;;;6.20;99.90;;;;;;5051775;28;20055;-64
2022/11/12 02:52:51;;;;;;;7.57;4.22;;;6.20;99.90;;;;;;5051849;28;20128;-64
2022/11/12 02:55:17;;;;;;;6.22;4.10;;;6.30;99.90;;;;;;5051357;28;20099;-64
2022/11/12 02:57:42;;;;;;;6.90;4.47;;;6.20;99.90;;;;;;5051238;28;20049;-64
2022/11/12 03:00:11;;;;;;;7.47;4.15;;;6.10;99.90;;;;;;5051459;28;20044;-64
2022/11/12 03:02:41;;;;;;;5.25;4.10;;;6.20;99.90;;;;;;5051594;28;20051;-64
2022/11/12 03:05:09;;;;;;;6.07;4.45;;;6.20;99.90;;;;;;5051460;28;20091;-64
2022/11/12 03:07:35;;;;;;;7.53;4.22;;;6.20;99.90;;;;;;5051477;28;20033;-64
2022/11/12 03:10:00;;;;;;;6.15;4.40;;;6.10;99.90;;;;;;5051693;28;20053;-64
2022/11/12 03:12:26;;;;;;;11.88;4.47;;;6.10;99.90;;;;;;5050979;28;20041;-64
2022/11/12 03:14:52;;;;;;;6.25;3.90;;;6.10;99.90;;;;;;5050936;28;20045;-64
2022/11/12 03:17:17;;;;;;;6.13;4.18;;;6.00;99.90;;;;;;5051366;28;20083;-64
2022/11/12 03:19:42;;;;;;;7.20;4.85;;;5.80;99.90;;;;;;5051306;28;20049;-64
2022/11/12 03:22:08;;;;;;;6.10;4.60;;;5.90;99.90;;;;;;5051299;28;20436;-64
2022/11/12 03:24:33;;;;;;;5.78;4.53;;;5.90;99.90;;;;;;5051005;28;20067;-64
2022/11/12 03:26:59;;;;;;;5.80;4.07;;;6.00;99.90;;;;;;5051043;28;20090;-64
2022/11/12 03:29:25;;;;;;;7.60;3.90;;;6.00;99.90;;;;;;5050968;28;20090;-64
2022/11/12 03:31:51;;;;;;;8.63;4.28;;;5.90;99.90;;;;;;5051127;28;20098;-64
2022/11/12 03:34:16;;;;;;;5.72;4.32;;;5.90;99.90;;;;;;5050678;28;20545;-64
2022/11/12 03:36:42;;;;;;;7.63;4.32;;;6.00;99.90;;;;;;5051127;28;20517;-64
2022/11/12 03:39:07;;;;;;;9.15;4.85;;;5.90;99.90;;;;;;5050930;28;20045;-64
2022/11/12 03:41:33;;;;;;;10.30;4.95;;;5.90;99.90;;;;;;5050592;28;20394;-64
2022/11/12 03:43:58;;;;;;;5.45;4.18;;;5.90;99.90;;;;;;5048889;28;20041;-64
2022/11/12 03:46:24;;;;;;;6.75;5.20;;;6.00;99.90;;;;;;5051011;28;20037;-64
2022/11/12 03:48:50;;;;;;;9.20;4.68;;;5.90;99.90;;;;;;5050923;28;20033;-64
2022/11/12 03:51:16;;;;;;;6.85;5.15;;;5.80;99.90;;;;;;5050706;28;20041;-64
2022/11/12 03:53:41;;;;;;;7.25;5.18;;;5.80;99.90;;;;;;5050649;28;20044;-64
2022/11/12 03:56:07;;;;;;;6.72;4.85;;;5.80;99.90;;;;;;5050913;28;20410;-64
2022/11/12 03:58:32;;;;;;;8.43;5.40;;;5.90;99.90;;;;;;5049100;28;20468;-64
2022/11/12 04:00:58;;;;;;;8.13;4.88;;;5.90;99.90;;;;;;5050927;28;20037;-64
2022/11/12 04:03:23;;;;;;;7.32;5.45;;;5.80;99.90;;;;;;5050734;28;20108;-64
2022/11/12 04:08:36;;;;;;;5.57;4.28;;;5.70;99.90;;;;;;5050480;28;20056;-64
2022/11/12 04:11:08;;;;;;;6.93;4.38;;;5.70;99.90;;;;;;5050334;28;20047;-64
2022/11/12 04:13:37;;;;;;;;;;;5.70;99.90;;;;;;5050929;28;20525;-64
2022/11/12 04:21:53;;;;;;;9.18;5.40;;;5.80;99.90;;;;;;5050339;28;20493;-64
2022/11/12 04:27:07;;;;;;;10.55;4.28;;;5.60;99.90;;;;;;5050760;28;20045;-64
2022/11/12 04:32:17;;;;;;;5.32;4.30;;;5.70;99.90;;;;;;5049335;28;20522;-64
2022/11/12 04:34:43;;;;;;;7.47;4.07;;;5.60;99.90;;;;;;5050191;28;20124;-64
2022/11/12 04:37:09;;;;;;;9.30;3.70;;;5.50;99.90;;;;;;5050653;28;20037;-64
2022/11/12 04:39:34;;;;;;;5.70;3.70;;;5.50;99.90;;;;;;5050517;28;20593;-64
2022/11/12 04:44:58;;;;;;;9.30;3.95;;;5.50;99.90;;;;;;5050415;28;20119;-64
2022/11/12 04:47:24;;;;;;;4.68;3.50;;;5.50;99.90;;;;;;5050370;28;20048;-66
2022/11/12 04:49:50;;;;;;;6.00;3.65;;;5.50;99.90;;;;;;5050326;28;20489;-66
2022/11/12 04:52:16;;;;;;;7.15;4.03;;;5.50;99.90;;;;;;5050242;28;20040;-64
2022/11/12 04:54:42;;;;;;;8.77;3.92;;;5.40;99.90;;;;;;5051512;28;20099;-64
2022/11/12 04:57:07;;;;;;;7.88;4.25;;;5.40;99.90;;;;;;5053782;28;20120;-64
2022/11/12 04:59:33;;;;;;;5.50;4.43;;;5.40;99.90;;;;;;5053771;28;20045;-64
2022/11/12 05:01:58;;;;;;;7.47;3.72;;;5.40;99.90;;;;;;5053667;28;20036;-64
2022/11/12 05:04:26;;;;;;;4.00;2.95;;;5.30;99.90;;;;;;5053609;28;20106;-64
2022/11/12 05:06:53;;;;;;;3.83;3.22;;;5.30;99.90;;;;;;5053640;28;20044;-64
2022/11/12 05:09:21;;;;;;;5.35;3.92;;;5.20;99.90;;;;;;5053573;28;20044;-66
2022/11/12 05:11:46;;;;;;;4.15;3.70;;;5.10;99.90;;;;;;5053371;28;20033;-66
2022/11/12 05:14:12;;;;;;;4.43;3.70;;;5.10;99.90;;;;;;5051939;28;20632;-66
2022/11/12 05:16:38;;;;;;;3.60;3.05;;;5.20;99.90;;;;;;5053624;28;20111;-66
2022/11/12 05:19:04;;;;;;;4.00;3.20;;;5.20;99.90;;;;;;5053497;28;20374;-66
2022/11/12 05:24:14;;;;;;;5.53;3.63;;;5.00;99.90;;;;;;5053299;28;20045;-66
2022/11/12 05:26:40;;;;;;;8.00;3.20;;;4.90;99.90;;;;;;5053206;28;20041;-66
2022/11/12 05:29:06;;;;;;;5.35;3.40;;;5.00;99.90;;;;;;5053218;28;20056;-66
2022/11/12 05:31:32;;;;;;;5.97;3.80;;;5.10;99.90;;;;;;5052937;28;20044;-64
2022/11/12 05:33:57;;;;;;;4.47;3.70;;;5.10;99.90;;;;;;5052839;28;20055;-64
2022/11/12 05:36:23;;;;;;;3.85;3.25;;;5.10;99.90;;;;;;5052060;28;20049;-64
2022/11/12 05:38:48;;;;;;;4.18;3.13;;;5.20;99.90;;;;;;5051905;28;20467;-64
2022/11/12 05:41:14;;;;;;;5.65;3.38;;;5.20;99.90;;;;;;5053293;28;20393;-64
2022/11/12 05:43:39;;;;;;;4.85;3.20;;;5.20;99.90;;;;;;5051554;28;20044;-64
2022/11/12 05:46:05;;;;;;;4.05;3.42;;;5.20;99.90;;;;;;5052949;28;20409;-64
2022/11/12 05:48:30;;;;;;;5.53;3.75;;;5.20;99.90;;;;;;5053098;28;20504;-64
2022/11/12 05:50:56;;;;;;;5.63;4.45;;;5.10;99.90;;;;;;5052788;28;20064;-64
2022/11/12 05:53:22;;;;;;;5.80;3.58;;;5.20;99.90;;;;;;5052927;28;20048;-64
2022/11/12 05:55:47;;;;;;;6.68;4.30;;;5.10;99.90;;;;;;5052481;28;20512;-64
2022/11/12 05:58:13;;;;;;;4.97;3.65;;;5.00;99.90;;;;;;5052283;28;20040;-64
2022/11/12 06:00:38;;;;;;;6.95;4.10;;;5.10;99.90;;;;;;5052701;28;20029;-64
2022/11/12 06:03:05;;;;;;;5.95;3.95;;;5.10;99.90;;;;;;5052606;28;20116;-64
2022/11/12 06:05:34;;;;;;;7.55;4.78;;;5.10;99.90;;;;;;5051458;28;20033;-64
2022/11/12 06:08:01;;;;;;;5.75;3.85;;;5.00;99.90;;;;;;5050781;28;20041;-64
2022/11/12 06:10:26;;;;;;;6.28;4.10;;;5.10;99.90;;;;;;5051517;28;20134;-64
2022/11/12 06:12:53;;;;;;;6.78;3.53;;;5.10;99.90;;;;;;5052459;28;20335;-64
2022/11/12 06:15:18;;;;;;;4.43;3.45;;;5.10;99.90;;;;;;5052243;28;20029;-64
2022/11/12 06:17:44;;;;;;;5.90;3.90;;;5.20;99.90;;;;;;5052714;28;20029;-64
2022/11/12 06:20:10;;;;;;;10.32;4.22;;;5.10;99.90;;;;;;5051983;28;20119;-64
2022/11/12 06:22:36;;;;;;;8.05;3.85;;;5.00;99.90;;;;;;5052305;28;20087;-64
2022/11/12 06:25:02;;;;;;;4.97;3.50;;;4.90;99.90;;;;;;5052137;28;20374;-64
2022/11/12 06:27:28;;;;;;;5.60;4.03;;;5.00;99.90;;;;;;5052449;28;20044;-64
2022/11/12 06:29:54;;;;;;;5.75;3.92;;;5.10;99.90;;;;;;5052314;28;20489;-64
2022/11/12 06:32:19;;;;;;;6.00;4.38;;;5.00;99.90;;;;;;5052364;28;20059;-64
2022/11/12 06:34:45;;;;;;;6.53;3.85;;;4.90;99.90;;;;;;5051590;28;20496;-64
2022/11/12 06:37:10;;;;;;;6.78;4.40;;;4.80;99.90;;;;;;5052269;28;20402;-64
2022/11/12 06:39:36;;;;;;;3.97;2.97;;;4.70;99.90;;;;;;5051907;28;20463;-64
2022/11/12 06:42:01;;;;;;;12.93;3.25;;;4.70;99.90;;;;;;5051853;28;20135;-64
2022/11/12 06:44:27;;;;;;;4.05;2.90;;;4.50;99.90;;;;;;5049946;28;20040;-64
2022/11/12 06:46:53;;;;;;;3.00;2.72;;;4.60;99.90;;;;;;5049083;28;20052;-64
2022/11/12 06:49:18;;;;;;;4.18;2.88;;;4.60;99.90;;;;;;5050026;28;20508;-64
2022/11/12 06:51:44;;;;;;;10.15;2.72;;;4.50;99.90;;;;;;5051694;28;20417;-64
2022/11/12 06:54:09;;;;;;;2.92;2.63;;;4.30;99.90;;;;;;5051107;28;20048;-64
2022/11/12 06:56:35;;;;;;;5.55;2.78;;;4.40;99.90;;;;;;5051117;28;20045;-64
2022/11/12 06:59:01;;;;;;;3.70;2.85;;;4.50;99.90;;;;;;5049145;28;20663;-64
2022/11/12 07:01:27;;;;;;;9.80;4.00;;;4.60;99.90;;;;;;5050254;28;20040;-64
2022/11/12 07:03:52;;;;;;;6.15;3.53;;;4.60;99.90;;;;;;5051180;28;20056;-64
2022/11/12 07:06:19;;;;;;;6.07;3.53;;;4.60;99.90;;;;;;5049996;28;20071;-64
2022/11/12 07:08:48;;;;;;;6.20;3.78;;;4.60;99.90;;;;;;5050146;28;20087;-65
2022/11/12 07:11:15;;;;;;;7.10;4.25;;;4.60;99.90;;;;;;5049872;28;20052;-64
2022/11/12 07:13:43;;;;;;;12.00;5.13;;;4.70;99.90;;;;;;5051338;28;20124;-64
2022/11/12 07:16:10;;;;;;;7.57;4.72;;;4.70;99.90;;;;;;5051304;28;20045;-64
2022/11/12 07:18:36;;;;;;;8.82;4.45;;;4.70;99.90;;;;;;5050787;28;20040;-64
2022/11/12 07:21:07;;;;;;;9.23;4.93;;;4.60;99.90;;;;;;5049726;28;20040;-64
2022/11/12 07:23:34;;;;;;;8.65;4.95;;;4.50;99.90;;;;;;5051362;28;20135;-64
2022/11/12 07:26:17;;;;;;;9.00;5.20;;;4.60;99.90;;;;;;5050874;28;20462;-64
2022/11/12 07:28:44;;;;;;;9.95;5.13;;;4.70;99.90;;;;;;5051098;28;20532;-64
2022/11/12 07:31:12;;;;;;;9.43;4.80;;;4.70;99.90;;;;;;5050754;28;20120;-65
2022/11/12 07:33:39;;;;;;;8.60;4.60;;;4.70;99.90;;;;;;5051018;28;20678;-65
2022/11/12 07:36:06;;;;;;;9.45;4.00;;;4.60;99.90;;;;;;5050549;28;20041;-64
2022/11/12 07:38:33;;;;;;;5.78;3.60;;;4.50;99.90;;;;;;5049817;28;20041;-65
2022/11/12 07:41:04;;;;;;;5.40;3.67;;;4.50;99.90;;;;;;5050652;28;20076;-64
2022/11/12 07:43:32;;;;;;;4.22;3.45;;;4.60;99.90;;;;;;5049278;28;20036;-65
2022/11/12 07:45:59;;;;;;;8.18;3.60;;;4.70;99.90;;;;;;5050500;28;20094;-65
2022/11/12 07:48:24;;;;;;;6.78;3.67;;;4.70;99.90;;;;;;5049710;28;20045;-64
2022/11/12 07:50:50;;;;;;;4.53;3.92;;;4.60;99.90;;;;;;5049258;28;20090;-64
2022/11/12 07:53:15;;;;;;;8.23;4.13;;;4.70;99.90;;;;;;5050731;28;20041;-64
2022/11/12 07:55:41;;;;;;;6.38;4.40;;;4.80;99.90;;;;;;5049200;28;20128;-64
2022/11/12 07:58:06;;;;;;;6.05;4.38;;;4.90;99.90;;;;;;5050542;28;20741;-64
2022/11/12 08:00:32;;;;;;;7.25;4.50;;;5.00;99.90;;;;;;5050848;28;20612;-64
2022/11/12 08:03:00;;;;;;;6.72;3.92;;;5.10;99.90;;;;;;5050727;28;20116;-64
2022/11/12 08:05:26;;;;;;;6.57;4.65;;;5.00;99.90;;;;;;5032465;28;20466;-64
2022/11/12 08:07:55;;;;;;;6.80;4.85;;;5.10;99.90;;;;;;5048980;28;20148;-64
2022/11/12 08:10:20;;;;;;;8.65;5.00;;;5.20;99.90;;;;;;5049524;28;20041;-64
2022/11/12 08:12:46;;;;;;;10.63;5.80;;;5.20;99.90;;;;;;5050470;28;20083;-64
2022/11/12 08:15:11;;;;;;;9.18;5.25;;;5.30;99.90;;;;;;5050409;28;20041;-64
2022/11/12 08:17:38;;;;;;;6.70;4.75;;;5.30;99.90;;;;;;5050444;28;20537;-64
2022/11/12 08:20:05;;;;;;;8.85;5.63;;;5.40;99.90;;;;;;5050664;28;20397;-64
2022/11/12 08:22:30;;;;;;;9.32;6.07;;;5.50;99.90;;;;;;5050605;28;20029;-65
2022/11/12 08:24:56;;;;;;;8.60;5.72;;;5.60;99.90;;;;;;5050403;28;20056;-65
2022/11/12 08:27:22;;;;;;;10.20;6.68;;;5.70;99.90;;;;;;5050678;28;20499;-64
2022/11/12 08:29:47;;;;;;;11.30;5.72;;;5.70;99.90;;;;;;5052017;28;20088;-64
2022/11/12 08:32:14;;;;;;;8.20;5.45;;;5.80;99.90;;;;;;5052704;28;20091;-65
2022/11/12 08:34:40;;;;;;;10.70;5.97;;;5.80;99.90;;;;;;5053811;28;20032;-65
2022/11/12 08:37:06;;;;;;;10.75;6.30;;;5.90;99.90;;;;;;5054225;28;20067;-64
2022/11/12 08:39:31;;;;;;;11.00;6.28;;;6.00;99.90;;;;;;5052754;28;20041;-66
2022/11/12 08:41:57;;;;;;;12.27;6.50;;;6.00;99.90;;;;;;5054119;28;20529;-68
2022/11/12 08:44:22;;;;;;;10.88;5.70;;;6.10;99.90;;;;;;5053994;28;20481;-66
2022/11/12 08:46:49;;;;;;;13.15;6.28;;;6.10;99.90;;;;;;5054335;28;20485;-66
2022/11/12 08:49:15;;;;;;;8.73;6.03;;;6.20;99.90;;;;;;5053712;28;20041;-65
2022/11/12 08:51:41;;;;;;;13.95;7.15;;;6.30;99.90;;;;;;5054010;28;20114;-65
2022/11/12 08:54:06;;;;;;;9.73;6.60;;;6.30;99.90;;;;;;5053719;28;20044;-65
2022/11/12 08:56:32;;;;;;;9.98;6.80;;;6.30;99.90;;;;;;5054215;28;20057;-65
2022/11/12 08:58:58;;;;;;;10.55;6.43;;;6.40;99.90;;;;;;5053704;28;20057;-64
2022/11/12 09:01:24;;;;;;;10.57;6.50;;;6.40;99.90;;;;;;5053704;28;20041;-64
2022/11/12 09:03:50;;;;;;;13.05;7.65;;;6.40;99.90;;;;;;5053370;28;20041;-65
2022/11/12 09:06:15;;;;;;;13.82;6.88;;;6.40;99.90;;;;;;5053895;28;20045;-64
2022/11/12 09:08:41;;;;;;;10.75;6.80;;;6.50;99.90;;;;;;5053962;28;20518;-65
2022/11/12 09:11:07;;;;;;;11.02;7.72;;;6.50;99.90;;;;;;5053388;28;20041;-64
2022/11/12 09:13:33;;;;;;;8.20;6.28;;;6.50;99.90;;;;;;5053607;28;20052;-65
2022/11/12 09:16:04;;;;;;;11.48;7.40;;;6.60;99.90;;;;;;5035261;28;20048;-65
2022/11/12 09:18:31;;;;;;;13.05;7.43;;;6.60;99.90;;;;;;5052095;28;20047;-64
2022/11/12 09:21:05;;;;;;;14.45;8.73;;;6.70;99.90;;;;;;5053167;28;20048;-64
2022/11/12 09:23:33;;;;;;;12.10;7.35;;;6.80;99.90;;;;;;5052243;28;20493;-65
2022/11/12 09:25:58;;;;;;;14.35;7.97;;;6.90;99.90;;;;;;5053102;28;20043;-64
2022/11/12 09:28:24;;;;;;;11.63;7.20;;;6.90;99.90;;;;;;5053346;28;20040;-64
2022/11/12 09:30:50;;;;;;;14.25;7.95;;;6.90;99.90;;;;;;5052930;28;20056;-65
2022/11/12 09:33:19;;;;;;;11.40;7.55;;;7.00;99.90;;;;;;5053197;28;20462;-64
2022/11/12 09:35:45;;;;;;;14.25;8.35;;;7.10;99.90;;;;;;5052827;28;20693;-65
2022/11/12 09:38:13;;;;;;;15.40;8.73;;;7.10;99.90;;;;;;5053168;28;20037;-65
2022/11/12 09:40:50;;;;;;;12.82;9.05;;;7.10;99.90;;;;;;5052549;28;20041;-65
2022/11/12 09:43:36;;;;;;;16.45;8.80;;;7.20;99.90;;;;;;5053348;28;20033;-65
2022/11/12 09:46:16;;;;;;;16.90;9.60;;;7.30;99.90;;;;;;5052987;28;20091;-65
2022/11/12 09:48:48;;;;;;;14.68;8.38;;;7.30;99.90;;;;;;5053278;28;20052;-65
2022/11/12 09:51:30;;;;;;;15.60;8.73;;;7.40;99.90;;;;;;5052758;28;20043;-65
2022/11/12 09:54:18;;;;;;;15.93;9.18;;;7.50;99.90;;;;;;5052828;28;20041;-65
2022/11/12 09:56:45;;;;;;;19.85;9.13;;;7.50;99.90;;;;;;5052800;28;20513;-65
2022/11/12 09:59:12;;;;;;;18.15;8.75;;;7.60;99.90;;;;;;5052620;28;20103;-65
2022/11/12 10:01:45;;;;;;;16.63;9.20;;;7.70;99.90;;;;;;5052735;28;20060;-65
2022/11/12 10:04:33;;;;;;;;;;;7.70;99.90;;;;;;5052883;28;20444;-65
2022/11/12 10:07:13;;;;;;;16.15;9.38;;;7.80;99.90;;;;;;5051160;28;19924;-65
2022/11/12 10:09:44;;;;;;;15.88;9.60;;;7.80;99.90;;;;;;5052895;28;20073;-67
2022/11/12 10:12:33;;;;;;;17.50;9.80;;;7.90;99.90;;;;;;5052251;28;20519;-67
2022/11/12 10:18:22;;;;;;;21.05;10.23;;;8.10;99.90;;;;;;5052299;28;20045;-65
2022/11/12 10:21:26;;;;;;;16.85;9.43;;;8.20;99.90;;;;;;5051159;28;20465;-65
2022/11/12 10:23:52;;;;;;;;;;;8.20;99.90;;;;;;5051740;28;20099;-65
2022/11/12 10:26:20;;;;;;;16.25;9.30;;;8.30;99.90;;;;;;5051143;28;19921;-65
2022/11/12 10:28:52;;;;;;;17.30;10.07;;;8.30;99.90;;;;;;5052537;28;20563;-65
2022/11/12 10:31:19;;;;;;;15.52;9.68;;;8.30;99.90;;;;;;5052083;28;20118;-66
2022/11/12 10:33:45;;;;;;;17.70;9.30;;;8.40;99.90;;;;;;5052205;28;20040;-64
2022/11/12 10:36:34;;;;;;;15.18;9.32;;;8.40;99.90;;;;;;5051961;28;20117;-65
2022/11/12 10:38:59;;;;;;;18.48;10.10;;;8.60;99.90;;;;;;5051927;28;20513;-65
2022/11/12 10:41:31;;;;;;;17.10;10.20;;;8.60;99.90;;;;;;5051595;28;20091;-65
2022/11/12 10:44:03;;;;;;;16.50;9.77;;;8.70;99.90;;;;;;5051328;28;20083;-65
2022/11/12 10:46:32;;;;;;;16.33;9.27;;;8.70;99.90;;;;;;5050754;28;20040;-65
2022/11/12 10:49:03;;;;;;;21.20;10.30;;;8.80;99.90;;;;;;5051896;28;20051;-65
2022/11/12 10:51:34;;;;;;;19.50;9.82;;;8.80;99.90;;;;;;5051438;28;20041;-65
2022/11/12 10:54:25;;;;;;;20.98;9.70;;;8.90;99.90;;;;;;5051458;28;20069;-65
2022/11/12 10:56:51;;;;;;;18.08;10.18;;;9.10;99.90;;;;;;5051784;28;20049;-65
2022/11/12 10:59:19;;;;;;;17.05;9.90;;;9.10;99.90;;;;;;5051415;28;20044;-65
2022/11/12 11:01:52;;;;;;;19.30;9.57;;;9.20;99.90;;;;;;5051518;28;20444;-65
2022/11/12 11:04:21;;;;;;;17.52;10.02;;;9.20;99.90;;;;;;5051331;28;20037;-64
2022/11/12 11:06:46;;;;;;;17.83;9.63;;;9.30;99.90;;;;;;5051381;28;20444;-64
2022/11/12 11:09:12;;;;;;;15.80;9.48;;;9.40;99.90;;;;;;5051464;28;20044;-65
2022/11/12 11:11:52;;;;;;;15.15;8.80;;;9.50;99.90;;;;;;5051534;28;20101;-65
2022/11/12 11:14:20;;;;;;;18.70;9.73;;;9.50;99.90;;;;;;5051160;28;20041;-65
2022/11/12 11:16:55;;;;;;;15.75;9.32;;;9.60;99.90;;;;;;5051364;28;20037;-65
2022/11/12 11:19:21;;;;;;;15.13;9.05;;;9.70;99.90;;;;;;5051200;28;20148;-65
2022/11/12 11:21:47;;;;;;;14.88;8.93;;;9.70;99.90;;;;;;5051461;28;20101;-65
2022/11/12 11:24:31;;;;;;;17.55;9.75;;;9.70;99.90;;;;;;5051028;28;20111;-65
2022/11/12 11:27:23;;;;;;;17.42;9.27;;;9.80;99.90;;;;;;5049967;28;20049;-65
2022/11/12 11:30:05;;;;;;;18.42;9.40;;;9.80;99.90;;;;;;5050704;28;20099;-65
2022/11/12 11:33:09;;;;;;;17.60;10.50;;;9.90;99.90;;;;;;5051125;28;20045;-65
2022/11/12 11:35:40;;;;;;;14.32;9.05;;;9.90;99.90;;;;;;5049985;28;20287;-65
2022/11/12 11:38:30;;;;;;;18.60;9.80;;;9.90;99.90;;;;;;5050812;28;20098;-65
2022/11/12 11:41:13;;;;;;;16.40;9.38;;;10.00;99.90;;;;;;5049868;28;20041;-65
2022/11/12 11:43:56;;;;;;;15.10;9.23;;;10.10;99.90;;;;;;5050918;28;20120;-65
2022/11/12 11:46:55;;;;;;;14.18;9.18;;;10.10;99.90;;;;;;5049545;28;20073;-65
2022/11/12 11:49:56;;;;;;;15.63;8.77;;;10.20;99.90;;;;;;5049722;28;20091;-65
2022/11/12 11:52:27;;;;;;;20.58;9.70;;;10.30;99.90;;;;;;5050878;28;20116;-64
2022/11/12 11:55:37;;;;;;;17.38;9.88;;;10.30;99.90;;;;;;5050409;28;20029;-64
2022/11/12 11:58:25;;;;;;;20.17;9.73;;;10.40;99.90;;;;;;5048063;28;20140;-65
2022/11/12 12:01:16;;;;;;;13.35;8.27;;;10.40;99.90;;;;;;5048162;28;20037;-65
2022/11/12 12:04:06;;;;;;;17.52;9.60;;;10.40;99.90;;;;;;5049598;28;20045;-65
2022/11/12 12:06:45;;;;;;;19.17;9.57;;;10.40;99.90;;;;;;5052558;28;20102;-65
2022/11/12 12:09:24;;;;;;;19.40;9.32;;;10.40;99.90;;;;;;5052074;28;20044;-64
2022/11/12 12:12:13;;;;;;;13.38;9.38;;;10.50;99.90;;;;;;5052123;28;20059;-65
2022/11/12 12:14:55;;;;;;;15.38;9.68;;;10.40;99.90;;;;;;5051773;28;20044;-65
2022/11/12 12:17:20;;;;;;;19.52;9.70;;;10.50;99.90;;;;;;5052168;28;20112;-65
2022/11/12 12:19:59;;;;;;;14.55;9.75;;;10.50;99.90;;;;;;5051842;28;20533;-65
2022/11/12 12:22:44;;;;;;;22.63;10.10;;;10.50;99.90;;;;;;5052039;28;20636;-64
2022/11/12 12:25:16;;;;;;;19.95;10.15;;;10.50;99.90;;;;;;5051691;28;20088;-65
2022/11/12 12:27:53;;;;;;;16.92;9.02;;;10.60;99.90;;;;;;5035519;28;20084;-65
2022/11/12 12:30:23;;;;;;;16.35;9.95;;;10.60;99.90;;;;;;5051504;28;20041;-65
2022/11/12 12:33:10;;;;;;;20.17;9.38;;;10.60;99.90;;;;;;5050894;28;20061;-65
2022/11/12 12:35:56;;;;;;;14.90;8.40;;;10.70;99.90;;;;;;5054297;28;20049;-65
2022/11/12 12:38:46;;;;;;;12.77;8.88;;;10.70;99.90;;;;;;5054266;28;20061;-65
2022/11/12 12:41:28;;;;;;;17.70;9.02;;;10.80;99.90;;;;;;5054405;28;20049;-64
2022/11/12 12:43:56;;;;;;;16.90;9.10;;;10.80;99.90;;;;;;5054184;28;20040;-65
2022/11/12 12:46:26;;;;;;;14.18;8.40;;;10.80;99.90;;;;;;5054397;28;20045;-64
2022/11/12 12:48:54;;;;;;;17.88;9.85;;;10.90;99.90;;;;;;5054239;28;20073;-65
2022/11/12 12:51:20;;;;;;;15.93;8.50;;;11.00;99.90;;;;;;5054342;28;20479;-65
2022/11/12 12:53:46;;;;;;;15.27;9.32;;;11.00;99.90;;;;;;5053943;28;20456;-65
2022/11/12 12:56:11;;;;;;;16.40;9.60;;;11.00;99.90;;;;;;5054220;28;20041;-65
2022/11/12 12:58:43;;;;;;;15.48;8.60;;;11.00;99.90;;;;;;5053749;28;20048;-65
2022/11/12 13:01:24;;;;;;;16.63;9.32;;;11.10;99.90;;;;;;5053751;28;20095;-65
2022/11/12 13:03:54;;;;;;;14.68;9.05;;;11.10;99.90;;;;;;5053824;28;20052;-65
2022/11/12 13:06:22;;;;;;;19.33;10.05;;;11.10;99.90;;;;;;5053833;28;20043;-65
2022/11/12 13:08:56;;;;;;;16.60;8.85;;;11.10;99.90;;;;;;5053934;28;20448;-65
2022/11/12 13:14:48;;;;;;;17.35;9.05;;;11.10;99.90;;;;;;5053532;28;20041;-65
2022/11/12 13:17:47;;;;;;;16.75;8.85;;;11.20;99.90;;;;;;5053766;28;20049;-65
2022/11/12 13:20:30;;;;;;;16.65;8.23;;;11.30;99.90;;;;;;5053332;28;20102;-64
2022/11/12 13:22:55;;;;;;;15.40;8.25;;;11.30;99.90;;;;;;5053769;28;20050;-65
2022/11/12 13:25:25;;;;;;;14.95;9.40;;;11.30;99.90;;;;;;5053027;28;20489;-65
2022/11/12 13:27:51;;;;;;;13.82;8.50;;;11.40;99.90;;;;;;5053635;28;20041;-65